Time;durP1;ratioP1;P1;durP2;ratioP2;P2;SDS_P1;SDS_P2;PMS_P1;PMS_P2;Temp;Humidity;BMP_temperature;BMP_pressure;BME280_temperature;BME280_humidity;BME280_pressure;Samples;Min_cycle;Max_cycle;Signal;HPM_P1;HPM_P2
2021/10/19 00:00:53;;;;;;;39.00;22.13;;;;;;;;;;5039523;28;20042;-79
2021/10/19 00:03:20;;;;;;;38.92;21.77;;;;;;;;;;5041005;28;20049;-79
2021/10/19 00:05:47;;;;;;;39.42;20.98;;;;;;;;;;5041495;28;20099;-79
2021/10/19 00:08:13;;;;;;;39.92;20.27;;;;;;;;;;5043490;28;20049;-80
2021/10/19 00:10:40;;;;;;;39.53;22.27;;;;;;;;;;5048209;28;20111;-77
2021/10/19 00:13:07;;;;;;;41.03;21.92;;;;;;;;;;5049605;28;20084;-78
2021/10/19 00:15:35;;;;;;;45.85;22.30;;;;;;;;;;5041556;28;20045;-77
2021/10/19 00:18:02;;;;;;;41.65;22.33;;;;;;;;;;5042616;28;20103;-79
2021/10/19 00:20:29;;;;;;;47.33;23.55;;;;;;;;;;5040298;28;20049;-78
2021/10/19 00:22:55;;;;;;;50.75;25.15;;;;;;;;;;5041180;28;20091;-78
2021/10/19 00:25:22;;;;;;;50.53;25.38;;;;;;;;;;5041415;28;20049;-80
2021/10/19 00:27:49;;;;;;;49.38;24.45;;;;;;;;;;5041375;28;20076;-80
2021/10/19 00:30:16;;;;;;;52.17;24.90;;;;;;;;;;5041739;28;20528;-79
2021/10/19 00:32:45;;;;;;;48.13;24.55;;;;;;;;;;5041564;28;20119;-80
2021/10/19 00:35:11;;;;;;;47.03;24.23;;;;;;;;;;5041904;28;20072;-80
2021/10/19 00:37:38;;;;;;;45.15;22.85;;;;;;;;;;5041576;28;20112;-76
2021/10/19 00:40:07;;;;;;;46.20;23.80;;;;;;;;;;5040478;28;20115;-78
2021/10/19 00:42:35;;;;;;;40.50;22.05;;;;;;;;;;5040669;28;20458;-78
2021/10/19 00:45:02;;;;;;;41.15;22.08;;;;;;;;;;5040377;28;20111;-79
2021/10/19 00:47:29;;;;;;;41.70;21.15;;;;;;;;;;5041139;28;20072;-79
2021/10/19 00:49:57;;;;;;;40.95;21.83;;;;;;;;;;5040788;28;20076;-79
2021/10/19 00:52:24;;;;;;;42.42;23.73;;;;;;;;;;5041179;28;20059;-79
2021/10/19 00:54:52;;;;;;;41.67;21.42;;;;;;;;;;5043194;28;20049;-79
2021/10/19 00:57:19;;;;;;;39.20;21.33;;;;;;;;;;5044253;28;20559;-79
2021/10/19 00:59:47;;;;;;;42.17;21.98;;;;;;;;;;5003047;28;1126167;-79
2021/10/19 01:02:14;;;;;;;42.35;21.45;;;;;;;;;;5065683;22;20033;-81
2021/10/19 01:04:41;;;;;;;49.70;25.30;;;;;;;;;;5057395;28;20118;-82
2021/10/19 01:07:09;;;;;;;52.20;27.38;;;;;;;;;;5063601;28;20053;-82
2021/10/19 01:09:38;;;;;;;48.97;26.58;;;;;;;;;;5063865;28;20045;-82
2021/10/19 01:12:06;;;;;;;43.65;23.63;;;;;;;;;;5064100;28;20139;-82
2021/10/19 01:14:51;;;;;;;43.97;23.55;;;;;;;;;;5062725;28;20110;-82
2021/10/19 01:17:18;;;;;;;43.90;24.38;;;;;;;;;;5062155;28;20535;-82
2021/10/19 01:19:50;;;;;;;44.63;23.30;;;;;;;;;;5064492;28;20091;-82
2021/10/19 01:22:19;;;;;;;43.05;23.00;;;;;;;;;;5064068;28;20052;-82
2021/10/19 01:24:46;;;;;;;40.65;22.15;;;;;;;;;;5064001;28;20103;-82
2021/10/19 01:27:13;;;;;;;47.78;24.75;;;;;;;;;;5071304;28;20033;-82
2021/10/19 01:29:40;;;;;;;40.45;23.15;;;;;;;;;;5077984;28;20064;-82
2021/10/19 01:32:07;;;;;;;42.83;23.02;;;;;;;;;;5077900;28;20029;-82
2021/10/19 01:34:35;;;;;;;40.97;21.45;;;;;;;;;;5074474;28;20056;-82
2021/10/19 01:37:03;;;;;;;41.88;22.85;;;;;;;;;;5066086;28;20049;-82
2021/10/19 01:39:30;;;;;;;38.10;21.00;;;;;;;;;;5066171;28;20045;-82
2021/10/19 01:41:57;;;;;;;41.25;21.58;;;;;;;;;;5066829;28;20492;-82
2021/10/19 01:44:24;;;;;;;37.95;22.13;;;;;;;;;;5066000;28;20476;-82
2021/10/19 01:46:50;;;;;;;41.17;21.58;;;;;;;;;;5066383;28;20600;-83
2021/10/19 01:49:17;;;;;;;37.95;20.33;;;;;;;;;;5066171;28;20079;-82
2021/10/19 01:51:44;;;;;;;35.47;20.73;;;;;;;;;;5067452;28;20090;-82
2021/10/19 01:54:12;;;;;;;35.60;20.33;;;;;;;;;;5070711;28;20049;-82
2021/10/19 01:56:39;;;;;;;35.55;19.52;;;;;;;;;;5071880;28;20049;-82
2021/10/19 01:59:05;;;;;;;35.67;19.08;;;;;;;;;;5068787;28;20049;-79
2021/10/19 02:01:32;;;;;;;35.72;20.05;;;;;;;;;;5061064;28;20091;-79
2021/10/19 02:03:59;;;;;;;34.58;19.15;;;;;;;;;;5059734;28;20048;-79
2021/10/19 02:06:26;;;;;;;34.45;19.10;;;;;;;;;;5063452;28;20041;-80
2021/10/19 02:08:53;;;;;;;37.25;20.35;;;;;;;;;;5064643;28;20120;-80
2021/10/19 02:11:22;;;;;;;35.60;19.60;;;;;;;;;;5064172;28;20052;-80
2021/10/19 02:13:49;;;;;;;37.50;18.92;;;;;;;;;;5064154;28;20430;-80
2021/10/19 02:16:15;;;;;;;33.72;19.75;;;;;;;;;;5063836;28;20107;-80
2021/10/19 02:18:42;;;;;;;34.13;19.98;;;;;;;;;;5063269;28;20072;-80
2021/10/19 02:21:09;;;;;;;35.72;19.92;;;;;;;;;;5064107;28;20091;-80
2021/10/19 02:23:36;;;;;;;34.13;18.77;;;;;;;;;;5064088;28;20103;-80
2021/10/19 02:26:03;;;;;;;31.95;18.60;;;;;;;;;;5063837;28;20128;-79
2021/10/19 02:28:31;;;;;;;37.28;19.58;;;;;;;;;;5061094;28;20087;-80
2021/10/19 02:30:58;;;;;;;38.63;21.88;;;;;;;;;;5061755;28;20110;-79
2021/10/19 02:33:25;;;;;;;37.72;21.70;;;;;;;;;;5062148;28;20045;-81
2021/10/19 02:35:51;;;;;;;41.92;22.17;;;;;;;;;;5061996;28;20456;-81
2021/10/19 02:38:18;;;;;;;38.13;20.23;;;;;;;;;;5061645;28;20049;-82
2021/10/19 02:40:45;;;;;;;34.33;20.20;;;;;;;;;;5061483;28;20049;-81
2021/10/19 02:43:12;;;;;;;33.95;19.08;;;;;;;;;;5060424;28;20091;-81
2021/10/19 02:45:40;;;;;;;35.22;19.77;;;;;;;;;;5060062;28;20045;-82
2021/10/19 02:48:07;;;;;;;35.53;19.35;;;;;;;;;;5059754;28;20447;-82
2021/10/19 02:50:34;;;;;;;36.72;20.50;;;;;;;;;;5059997;28;20423;-82
2021/10/19 02:53:01;;;;;;;37.30;19.35;;;;;;;;;;5060283;28;20048;-81
2021/10/19 02:55:28;;;;;;;36.95;20.35;;;;;;;;;;5060768;28;20045;-81
2021/10/19 02:57:54;;;;;;;34.75;19.75;;;;;;;;;;5060598;28;20068;-81
2021/10/19 03:00:24;;;;;;;34.47;18.67;;;;;;;;;;5060600;28;20293;-81
2021/10/19 03:02:52;;;;;;;32.47;18.20;;;;;;;;;;5060335;28;20396;-81
2021/10/19 03:05:19;;;;;;;32.28;19.27;;;;;;;;;;5059511;28;20072;-82
2021/10/19 03:07:46;;;;;;;35.03;19.75;;;;;;;;;;5060999;28;20045;-82
2021/10/19 03:10:14;;;;;;;35.70;20.13;;;;;;;;;;5061555;28;20046;-83
2021/10/19 03:12:41;;;;;;;38.22;19.98;;;;;;;;;;5067189;28;20133;-82
2021/10/19 03:15:08;;;;;;;34.80;18.58;;;;;;;;;;5066944;28;20136;-82
2021/10/19 03:17:35;;;;;;;35.72;19.65;;;;;;;;;;5062799;28;20049;-82
2021/10/19 03:20:04;;;;;;;37.65;20.77;;;;;;;;;;5064353;28;20049;-82
2021/10/19 03:22:31;;;;;;;34.22;19.02;;;;;;;;;;5063986;28;20045;-82
2021/10/19 03:24:58;;;;;;;34.85;20.27;;;;;;;;;;5063637;28;20045;-82
2021/10/19 03:27:25;;;;;;;34.28;18.35;;;;;;;;;;5063334;28;20045;-82
2021/10/19 03:29:52;;;;;;;34.33;18.60;;;;;;;;;;5063992;28;20484;-81
2021/10/19 03:32:19;;;;;;;37.00;19.08;;;;;;;;;;5063560;28;20053;-82
2021/10/19 03:34:45;;;;;;;33.45;18.83;;;;;;;;;;5062523;28;20518;-82
2021/10/19 03:37:13;;;;;;;33.88;18.40;;;;;;;;;;5062500;28;20049;-82
2021/10/19 03:39:40;;;;;;;38.45;21.50;;;;;;;;;;5061964;28;20080;-82
2021/10/19 03:42:07;;;;;;;36.78;19.90;;;;;;;;;;5061424;28;20079;-82
2021/10/19 03:44:34;;;;;;;36.72;20.02;;;;;;;;;;5060844;28;20099;-82
2021/10/19 03:47:00;;;;;;;40.05;22.33;;;;;;;;;;5060716;28;20520;-82
2021/10/19 03:49:27;;;;;;;38.63;20.92;;;;;;;;;;5060885;28;20500;-82
2021/10/19 03:51:54;;;;;;;36.40;20.98;;;;;;;;;;5060554;28;20082;-82
2021/10/19 03:54:22;;;;;;;34.85;20.63;;;;;;;;;;5060880;28;20049;-82
2021/10/19 03:56:49;;;;;;;35.30;20.48;;;;;;;;;;5057292;28;20071;-82
2021/10/19 03:59:16;;;;;;;38.03;21.50;;;;;;;;;;5055137;28;20049;-82
2021/10/19 04:01:43;;;;;;;41.45;25.05;;;;;;;;;;5055584;28;20045;-82
2021/10/19 04:04:10;;;;;;;46.45;24.00;;;;;;;;;;5056621;28;20102;-82
2021/10/19 04:06:37;;;;;;;45.45;22.55;;;;;;;;;;5058404;28;20071;-82
2021/10/19 04:09:04;;;;;;;36.78;20.60;;;;;;;;;;5058125;28;20496;-82
2021/10/19 04:11:32;;;;;;;35.97;18.88;;;;;;;;;;5057702;28;20099;-82
2021/10/19 04:13:59;;;;;;;35.20;19.58;;;;;;;;;;5057168;28;20459;-82
2021/10/19 04:16:26;;;;;;;41.42;21.17;;;;;;;;;;5057442;28;20091;-82
2021/10/19 04:18:53;;;;;;;33.65;17.73;;;;;;;;;;5057203;28;20203;-82
2021/10/19 04:21:19;;;;;;;35.85;18.95;;;;;;;;;;5057218;28;20068;-82
2021/10/19 04:23:47;;;;;;;28.60;16.73;;;;;;;;;;5059519;28;20049;-82
2021/10/19 04:26:14;;;;;;;28.00;15.68;;;;;;;;;;5056783;28;20053;-82
2021/10/19 04:28:44;;;;;;;23.00;13.00;;;;;;;;;;5071677;28;20095;-80
2021/10/19 04:31:11;;;;;;;22.50;13.03;;;;;;;;;;5077908;28;20029;-80
2021/10/19 04:33:40;;;;;;;24.70;13.07;;;;;;;;;;5074613;28;20080;-80
2021/10/19 04:36:06;;;;;;;24.08;12.45;;;;;;;;;;5072143;28;20041;-81
2021/10/19 04:38:33;;;;;;;23.98;12.98;;;;;;;;;;5058925;28;20056;-82
2021/10/19 04:41:01;;;;;;;21.45;10.80;;;;;;;;;;5057250;28;20045;-82
2021/10/19 04:43:27;;;;;;;20.75;11.38;;;;;;;;;;5056906;28;20082;-81
2021/10/19 04:45:56;;;;;;;17.27;10.77;;;;;;;;;;5055224;28;20052;-82
2021/10/19 04:48:23;;;;;;;25.80;13.43;;;;;;;;;;5055696;28;20053;-82
2021/10/19 04:50:51;;;;;;;22.52;12.93;;;;;;;;;;5055632;28;20079;-81
2021/10/19 04:53:18;;;;;;;27.05;13.63;;;;;;;;;;5056014;28;20064;-82
2021/10/19 04:55:47;;;;;;;26.63;14.20;;;;;;;;;;5056728;28;20041;-82
2021/10/19 04:58:14;;;;;;;25.55;13.13;;;;;;;;;;5056559;28;20053;-82
2021/10/19 05:00:43;;;;;;;29.48;14.65;;;;;;;;;;5058380;28;20041;-82
2021/10/19 05:03:15;;;;;;;25.85;13.30;;;;;;;;;;5059086;28;20118;-82
2021/10/19 05:05:42;;;;;;;26.98;13.65;;;;;;;;;;5059368;28;20122;-82
2021/10/19 05:08:11;;;;;;;29.70;14.50;;;;;;;;;;5059000;28;20053;-81
2021/10/19 05:10:38;;;;;;;26.75;15.85;;;;;;;;;;5057808;28;20059;-81
2021/10/19 05:13:05;;;;;;;42.88;23.08;;;;;;;;;;5057832;28;20052;-82
2021/10/19 05:15:32;;;;;;;35.70;19.50;;;;;;;;;;5056574;28;20076;-82
2021/10/19 05:17:59;;;;;;;29.10;15.35;;;;;;;;;;5057121;28;20053;-82
2021/10/19 05:20:27;;;;;;;29.75;15.93;;;;;;;;;;5057241;28;20053;-82
2021/10/19 05:22:54;;;;;;;25.70;14.55;;;;;;;;;;5058643;28;20472;-82
2021/10/19 05:25:21;;;;;;;24.77;14.82;;;;;;;;;;5054936;28;20490;-82
2021/10/19 05:27:48;;;;;;;25.40;13.65;;;;;;;;;;5054963;28;20049;-82
2021/10/19 05:30:15;;;;;;;26.48;14.25;;;;;;;;;;5054658;28;20053;-82
2021/10/19 05:32:41;;;;;;;23.45;12.25;;;;;;;;;;5054211;28;20061;-81
2021/10/19 05:35:09;;;;;;;23.92;13.45;;;;;;;;;;5056359;28;20053;-81
2021/10/19 05:37:37;;;;;;;23.35;13.80;;;;;;;;;;5056973;28;20053;-81
2021/10/19 05:40:05;;;;;;;23.70;13.50;;;;;;;;;;5062803;28;20092;-81
2021/10/19 05:42:32;;;;;;;22.25;12.52;;;;;;;;;;5065624;28;20060;-81
2021/10/19 05:44:59;;;;;;;24.58;12.57;;;;;;;;;;5067530;28;20047;-81
2021/10/19 05:47:26;;;;;;;22.23;11.80;;;;;;;;;;5060569;28;20099;-81
2021/10/19 05:49:52;;;;;;;23.40;13.20;;;;;;;;;;5058812;28;20488;-81
2021/10/19 05:52:19;;;;;;;22.70;13.98;;;;;;;;;;5060617;28;20057;-81
2021/10/19 05:54:47;;;;;;;37.72;20.95;;;;;;;;;;5059186;28;20049;-81
2021/10/19 05:57:14;;;;;;;59.13;28.65;;;;;;;;;;5058613;28;20049;-81
2021/10/19 05:59:41;;;;;;;88.45;42.40;;;;;;;;;;5059068;28;20225;-81
2021/10/19 06:02:09;;;;;;;63.17;31.27;;;;;;;;;;5059558;28;20075;-82
2021/10/19 06:04:35;;;;;;;63.38;34.28;;;;;;;;;;5059812;28;20052;-82
2021/10/19 06:07:03;;;;;;;38.17;20.85;;;;;;;;;;5059694;28;20056;-83
2021/10/19 06:09:30;;;;;;;32.28;17.52;;;;;;;;;;5059531;28;20048;-81
2021/10/19 06:12:00;;;;;;;53.17;28.70;;;;;;;;;;5060250;28;20048;-81
2021/10/19 06:14:27;;;;;;;43.20;24.13;;;;;;;;;;5059730;28;20108;-81
2021/10/19 06:16:54;;;;;;;26.75;14.98;;;;;;;;;;5058811;28;20187;-81
2021/10/19 06:19:22;;;;;;;22.75;14.38;;;;;;;;;;5059542;28;20538;-81
2021/10/19 06:21:48;;;;;;;73.15;37.25;;;;;;;;;;5059179;28;20055;-82
2021/10/19 06:24:17;;;;;;;54.00;27.58;;;;;;;;;;5059406;28;20454;-81
2021/10/19 06:26:45;;;;;;;21.23;12.40;;;;;;;;;;5059054;28;20088;-82
2021/10/19 06:29:14;;;;;;;18.42;11.27;;;;;;;;;;5059868;28;20098;-82
2021/10/19 06:31:41;;;;;;;15.95;9.13;;;;;;;;;;5059706;28;20452;-82
2021/10/19 06:34:09;;;;;;;15.55;8.85;;;;;;;;;;5059116;28;20464;-82
2021/10/19 06:36:36;;;;;;;19.23;9.27;;;;;;;;;;5059761;28;20083;-81
2021/10/19 06:39:04;;;;;;;14.25;7.97;;;;;;;;;;5060218;28;20065;-82
2021/10/19 06:41:31;;;;;;;12.65;7.60;;;;;;;;;;5059864;28;20041;-82
2021/10/19 06:43:58;;;;;;;15.60;6.93;;;;;;;;;;5059284;28;20045;-81
2021/10/19 06:46:26;;;;;;;14.40;7.40;;;;;;;;;;5059414;28;20553;-81
2021/10/19 06:48:53;;;;;;;14.93;6.40;;;;;;;;;;5064629;28;20079;-81
2021/10/19 06:51:20;;;;;;;11.98;6.25;;;;;;;;;;5072684;28;20041;-81
2021/10/19 06:53:46;;;;;;;12.35;6.10;;;;;;;;;;5065092;28;20049;-82
2021/10/19 06:56:13;;;;;;;16.92;7.35;;;;;;;;;;5059999;28;20094;-82
2021/10/19 06:58:40;;;;;;;13.13;6.18;;;;;;;;;;5058754;28;20045;-81
2021/10/19 07:01:07;;;;;;;14.18;6.93;;;;;;;;;;5059071;28;20107;-82
2021/10/19 07:03:35;;;;;;;12.80;6.50;;;;;;;;;;5069775;22;20045;-78
2021/10/19 07:06:05;;;;;;;20.48;7.45;;;;;;;;;;5061518;28;20053;-78
2021/10/19 07:08:33;;;;;;;16.30;6.40;;;;;;;;;;5063080;28;20155;-79
2021/10/19 07:11:00;;;;;;;15.98;7.10;;;;;;;;;;5064337;28;20104;-79
2021/10/19 07:13:27;;;;;;;11.23;5.90;;;;;;;;;;5064681;28;20128;-78
2021/10/19 07:15:54;;;;;;;14.88;6.90;;;;;;;;;;5063521;28;20049;-79
2021/10/19 07:18:22;;;;;;;15.15;6.05;;;;;;;;;;5063964;28;20052;-78
2021/10/19 07:20:50;;;;;;;12.07;6.75;;;;;;;;;;5064539;28;20053;-78
2021/10/19 07:23:18;;;;;;;14.73;6.18;;;;;;;;;;5063389;28;20041;-79
2021/10/19 07:25:45;;;;;;;11.25;5.55;;;;;;;;;;5062628;28;20102;-79
2021/10/19 07:28:12;;;;;;;11.27;5.15;;;;;;;;;;5063321;28;20110;-78
2021/10/19 07:30:39;;;;;;;11.43;5.10;;;;;;;;;;5063504;28;20053;-78
2021/10/19 07:33:06;;;;;;;12.07;6.07;;;;;;;;;;5062298;28;20148;-78
2021/10/19 07:35:33;;;;;;;11.40;5.82;;;;;;;;;;5062366;28;20045;-79
2021/10/19 07:38:01;;;;;;;13.70;6.03;;;;;;;;;;5063457;28;20091;-79
2021/10/19 07:40:28;;;;;;;13.90;5.72;;;;;;;;;;5062753;28;20159;-79
2021/10/19 07:42:55;;;;;;;11.80;6.78;;;;;;;;;;5061003;28;20053;-79
2021/10/19 07:45:23;;;;;;;14.07;6.90;;;;;;;;;;5059682;28;20077;-79
2021/10/19 07:47:51;;;;;;;17.65;8.57;;;;;;;;;;5059631;28;20079;-79
2021/10/19 07:50:19;;;;;;;15.88;7.97;;;;;;;;;;5060959;28;20045;-78
2021/10/19 07:52:48;;;;;;;19.35;8.55;;;;;;;;;;5062922;28;20049;-77
2021/10/19 07:55:17;;;;;;;13.98;6.50;;;;;;;;;;5062773;28;20108;-77
2021/10/19 07:57:45;;;;;;;17.25;7.80;;;;;;;;;;5067092;28;20051;-78
2021/10/19 08:00:13;;;;;;;18.80;8.02;;;;;;;;;;5066035;28;20136;-78
2021/10/19 08:02:42;;;;;;;17.27;7.75;;;;;;;;;;5061878;28;20052;-79
2021/10/19 08:05:13;;;;;;;19.30;9.00;;;;;;;;;;5060621;28;20057;-80
2021/10/19 08:07:42;;;;;;;18.33;8.30;;;;;;;;;;5061578;28;20057;-79
2021/10/19 08:10:10;;;;;;;18.75;8.52;;;;;;;;;;5066148;28;20450;-78
2021/10/19 08:12:38;;;;;;;14.45;7.70;;;;;;;;;;5063560;28;20052;-77
2021/10/19 08:15:06;;;;;;;18.02;8.77;;;;;;;;;;5063677;28;20045;-79
2021/10/19 08:17:33;;;;;;;20.67;9.65;;;;;;;;;;5062422;28;20103;-79
2021/10/19 08:20:01;;;;;;;16.33;7.85;;;;;;;;;;5061686;28;20047;-79
2021/10/19 08:22:28;;;;;;;18.23;10.00;;;;;;;;;;5061581;28;20044;-78
2021/10/19 08:24:56;;;;;;;14.45;7.90;;;;;;;;;;5059763;28;20053;-79
2021/10/19 08:27:23;;;;;;;17.33;8.30;;;;;;;;;;5061170;28;20049;-79
2021/10/19 08:29:52;;;;;;;15.82;7.43;;;;;;;;;;5061456;28;20098;-77
2021/10/19 08:32:20;;;;;;;18.48;8.85;;;;;;;;;;5065253;28;20057;-79
2021/10/19 08:34:48;;;;;;;17.08;8.23;;;;;;;;;;5059570;28;20143;-79
2021/10/19 08:37:15;;;;;;;16.23;7.82;;;;;;;;;;5061678;28;20095;-79
2021/10/19 08:39:42;;;;;;;18.27;8.18;;;;;;;;;;5062890;28;20075;-78
2021/10/19 08:42:09;;;;;;;18.67;8.30;;;;;;;;;;5061963;28;20106;-80
2021/10/19 08:44:36;;;;;;;18.73;9.13;;;;;;;;;;5061564;28;20096;-80
2021/10/19 08:47:04;;;;;;;17.38;8.48;;;;;;;;;;5062235;28;20049;-79
2021/10/19 08:49:31;;;;;;;15.30;7.78;;;;;;;;;;5063094;28;20044;-79
2021/10/19 08:52:00;;;;;;;18.77;8.75;;;;;;;;;;5062921;28;20114;-80
2021/10/19 08:54:27;;;;;;;18.48;8.60;;;;;;;;;;5063406;28;20048;-78
2021/10/19 08:56:54;;;;;;;15.20;8.48;;;;;;;;;;5062508;28;20071;-79
2021/10/19 08:59:23;;;;;;;17.13;7.70;;;;;;;;;;5063302;28;20052;-80
2021/10/19 09:01:54;;;;;;;16.20;7.07;;;;;;;;;;5062774;28;20106;-78
2021/10/19 09:04:21;;;;;;;;;;;;;;;;;;5063100;28;20049;-79
2021/10/19 09:06:51;;;;;;;13.32;6.72;;;;;;;;;;5057939;28;19921;-78
2021/10/19 09:09:23;;;;;;;11.63;5.95;;;;;;;;;;5057448;28;20048;-79
2021/10/19 09:11:52;;;;;;;15.02;6.75;;;;;;;;;;5058877;28;20049;-81
2021/10/19 09:14:20;;;;;;;14.60;5.93;;;;;;;;;;5057823;28;20044;-80
2021/10/19 09:16:49;;;;;;;22.88;6.45;;;;;;;;;;5057775;28;20080;-78
2021/10/19 09:19:18;;;;;;;13.80;6.40;;;;;;;;;;5058082;28;20057;-78
2021/10/19 09:21:47;;;;;;;15.15;7.18;;;;;;;;;;5061394;28;20045;-78
2021/10/19 09:24:18;;;;;;;13.30;6.85;;;;;;;;;;5062690;28;20087;-78
2021/10/19 09:26:53;;;;;;;17.20;7.53;;;;;;;;;;5060611;28;20051;-79
2021/10/19 09:29:20;;;;;;;19.40;8.98;;;;;;;;;;5059803;28;20049;-79
2021/10/19 09:31:50;;;;;;;22.65;8.95;;;;;;;;;;5058069;28;20045;-78
2021/10/19 09:34:16;;;;;;;12.40;5.88;;;;;;;;;;5058541;28;20045;-79
2021/10/19 09:36:43;;;;;;;17.77;6.38;;;;;;;;;;5058471;28;20099;-78
2021/10/19 09:39:11;;;;;;;13.77;6.10;;;;;;;;;;5057747;28;20049;-79
2021/10/19 09:41:45;;;;;;;13.45;5.68;;;;;;;;;;5059917;28;20049;-79
2021/10/19 09:44:14;;;;;;;11.68;6.03;;;;;;;;;;5060202;28;20125;-80
2021/10/19 09:46:41;;;;;;;12.30;5.53;;;;;;;;;;5058409;28;20079;-78
2021/10/19 09:49:09;;;;;;;19.50;7.22;;;;;;;;;;5058702;28;20454;-80
2021/10/19 09:51:38;;;;;;;17.35;7.38;;;;;;;;;;5058507;28;20114;-77
2021/10/19 09:54:09;;;;;;;20.90;7.85;;;;;;;;;;5058192;28;20125;-77
2021/10/19 09:56:38;;;;;;;20.50;7.97;;;;;;;;;;5059600;28;20411;-79
2021/10/19 09:59:05;;;;;;;18.35;8.93;;;;;;;;;;5057537;28;20048;-78
2021/10/19 10:01:33;;;;;;;15.10;7.75;;;;;;;;;;5060754;28;20049;-79
2021/10/19 10:04:01;;;;;;;35.63;10.18;;;;;;;;;;5059675;28;20045;-79
2021/10/19 10:06:28;;;;;;;18.20;8.32;;;;;;;;;;5060999;28;20049;-80
2021/10/19 10:08:55;;;;;;;15.90;7.80;;;;;;;;;;5056880;28;20041;-79
2021/10/19 10:11:22;;;;;;;13.63;6.78;;;;;;;;;;5056661;28;20134;-78
2021/10/19 10:13:57;;;;;;;19.15;7.22;;;;;;;;;;5057632;28;20045;-78
2021/10/19 10:16:24;;;;;;;14.05;7.22;;;;;;;;;;5057619;28;20049;-78
2021/10/19 10:18:51;;;;;;;18.33;7.78;;;;;;;;;;5058203;28;20052;-78
2021/10/19 10:21:20;;;;;;;15.35;7.07;;;;;;;;;;5059039;28;20488;-79
2021/10/19 10:23:58;;;;;;;13.80;7.40;;;;;;;;;;5059475;28;20045;-80
2021/10/19 10:26:27;;;;;;;15.65;8.35;;;;;;;;;;5061698;28;20044;-78
2021/10/19 10:28:54;;;;;;;32.13;15.55;;;;;;;;;;5060633;28;20049;-79
2021/10/19 10:31:23;;;;;;;24.85;12.90;;;;;;;;;;5059126;28;20061;-80
2021/10/19 10:34:01;;;;;;;22.83;11.13;;;;;;;;;;5059994;28;20053;-79
2021/10/19 10:36:37;;;;;;;17.45;9.07;;;;;;;;;;5061573;28;20103;-78
2021/10/19 10:39:06;;;;;;;14.48;7.47;;;;;;;;;;5060512;28;20522;-79
2021/10/19 10:41:37;;;;;;;13.05;7.10;;;;;;;;;;5063493;28;20059;-78
2021/10/19 10:44:05;;;;;;;14.30;6.43;;;;;;;;;;5061524;28;20052;-79
2021/10/19 10:46:33;;;;;;;10.25;6.25;;;;;;;;;;5059529;28;20076;-79
2021/10/19 10:49:00;;;;;;;11.30;5.82;;;;;;;;;;5058844;28;20499;-80
2021/10/19 10:51:29;;;;;;;11.88;4.63;;;;;;;;;;5060345;28;20163;-79
2021/10/19 10:53:56;;;;;;;10.40;4.78;;;;;;;;;;5060139;28;20049;-79
2021/10/19 10:56:23;;;;;;;12.15;5.00;;;;;;;;;;5059456;28;20403;-80
2021/10/19 10:58:50;;;;;;;12.32;4.95;;;;;;;;;;5060509;28;20045;-80
2021/10/19 11:01:20;;;;;;;7.65;4.00;;;;;;;;;;5059680;28;20049;-80
2021/10/19 11:03:52;;;;;;;9.63;4.68;;;;;;;;;;5059487;28;20045;-79
2021/10/19 11:06:21;;;;;;;10.82;5.30;;;;;;;;;;5058530;28;20041;-79
2021/10/19 11:08:49;;;;;;;13.63;6.82;;;;;;;;;;5058563;28;20539;-80
2021/10/19 11:11:18;;;;;;;15.43;6.80;;;;;;;;;;5059013;28;20568;-80
2021/10/19 11:13:48;;;;;;;14.02;6.78;;;;;;;;;;5058351;28;20475;-80
2021/10/19 11:16:15;;;;;;;11.97;5.70;;;;;;;;;;5057324;28;20056;-80
2021/10/19 11:18:42;;;;;;;13.00;6.38;;;;;;;;;;5057871;28;20282;-80
2021/10/19 11:21:10;;;;;;;11.40;4.97;;;;;;;;;;5057728;28;20396;-78
2021/10/19 11:23:41;;;;;;;12.63;5.57;;;;;;;;;;5057368;28;20090;-79
2021/10/19 11:26:10;;;;;;;9.80;5.43;;;;;;;;;;5058029;28;20049;-80
2021/10/19 11:28:37;;;;;;;12.73;5.35;;;;;;;;;;5058111;28;20045;-79
2021/10/19 11:31:05;;;;;;;13.25;6.03;;;;;;;;;;5058338;28;20045;-79
2021/10/19 11:33:36;;;;;;;13.93;5.95;;;;;;;;;;5058395;28;20049;-79
2021/10/19 11:36:03;;;;;;;13.23;6.65;;;;;;;;;;5057349;28;20107;-79
2021/10/19 11:38:31;;;;;;;12.27;6.80;;;;;;;;;;5056222;28;20057;-79
2021/10/19 11:41:06;;;;;;;14.40;7.40;;;;;;;;;;5057771;28;20045;-80
2021/10/19 11:43:35;;;;;;;14.38;7.60;;;;;;;;;;5058335;28;20466;-79
2021/10/19 11:46:07;;;;;;;16.05;7.53;;;;;;;;;;5057729;28;20075;-80
2021/10/19 11:48:34;;;;;;;12.18;7.05;;;;;;;;;;5056924;28;20053;-79
2021/10/19 11:51:01;;;;;;;13.27;7.00;;;;;;;;;;5056722;28;20091;-80
2021/10/19 11:53:29;;;;;;;13.07;6.55;;;;;;;;;;5056646;28;20059;-79
2021/10/19 11:56:01;;;;;;;11.20;6.07;;;;;;;;;;5057770;28;20112;-80
2021/10/19 11:58:28;;;;;;;12.52;6.30;;;;;;;;;;5057820;28;20049;-80
2021/10/19 12:00:54;;;;;;;13.68;6.55;;;;;;;;;;5058366;28;20102;-80
2021/10/19 12:03:30;;;;;;;11.48;5.38;;;;;;;;;;5057732;28;20056;-79
2021/10/19 12:05:58;;;;;;;13.18;5.47;;;;;;;;;;5057964;28;20053;-78
2021/10/19 12:08:30;;;;;;;12.13;5.13;;;;;;;;;;5057829;28;20095;-78
2021/10/19 12:11:08;;;;;;;13.63;4.95;;;;;;;;;;5057554;28;20045;-79
2021/10/19 12:13:36;;;;;;;9.75;4.45;;;;;;;;;;5057692;28;20523;-79
2021/10/19 12:16:03;;;;;;;9.18;4.30;;;;;;;;;;5057635;28;20044;-79
2021/10/19 12:18:40;;;;;;;8.40;4.00;;;;;;;;;;5057394;28;20500;-79
2021/10/19 12:21:07;;;;;;;10.70;5.03;;;;;;;;;;5056854;28;20052;-79
2021/10/19 12:23:33;;;;;;;11.68;4.80;;;;;;;;;;5056915;28;20435;-79
2021/10/19 12:26:03;;;;;;;20.10;11.40;;;;;;;;;;5056564;28;20496;-79
2021/10/19 12:28:30;;;;;;;13.87;8.43;;;;;;;;;;5057759;28;20152;-80
2021/10/19 12:30:59;;;;;;;8.82;4.28;;;;;;;;;;5056920;28;20431;-79
2021/10/19 12:33:27;;;;;;;8.32;4.10;;;;;;;;;;5056909;28;20466;-80
2021/10/19 12:35:56;;;;;;;10.30;3.90;;;;;;;;;;5057400;28;20554;-79
2021/10/19 12:38:28;;;;;;;9.07;4.05;;;;;;;;;;5059130;28;20049;-79
2021/10/19 12:40:55;;;;;;;9.15;4.05;;;;;;;;;;5059319;28;20057;-79
2021/10/19 12:43:23;;;;;;;8.27;4.30;;;;;;;;;;5056365;28;20353;-79
2021/10/19 12:45:50;;;;;;;8.32;4.05;;;;;;;;;;5056913;28;20052;-79
2021/10/19 12:48:17;;;;;;;11.70;4.80;;;;;;;;;;5055918;28;20458;-80
2021/10/19 12:50:44;;;;;;;10.40;4.55;;;;;;;;;;5056411;28;20045;-80
2021/10/19 12:53:10;;;;;;;9.30;5.28;;;;;;;;;;5055806;28;20060;-79
2021/10/19 12:55:37;;;;;;;10.65;4.85;;;;;;;;;;5055473;28;20049;-79
2021/10/19 12:58:04;;;;;;;10.98;5.38;;;;;;;;;;5055649;28;20045;-79
2021/10/19 13:00:32;;;;;;;11.13;4.72;;;;;;;;;;5055880;28;20091;-80
2021/10/19 13:02:59;;;;;;;9.18;4.47;;;;;;;;;;5056408;28;20053;-79
2021/10/19 13:05:26;;;;;;;12.43;5.10;;;;;;;;;;5064791;22;20041;-61
2021/10/19 13:07:53;;;;;;;12.50;5.13;;;;;;;;;;5052811;28;20461;-61
2021/10/19 13:10:20;;;;;;;11.07;6.20;;;;;;;;;;5052448;28;20053;-61
2021/10/19 13:12:47;;;;;;;9.15;4.60;;;;;;;;;;5053143;28;20482;-61
2021/10/19 13:15:14;;;;;;;10.57;5.30;;;;;;;;;;5052667;28;20049;-62
2021/10/19 13:17:44;;;;;;;10.18;5.03;;;;;;;;;;5053314;28;20049;-61
2021/10/19 13:20:14;;;;;;;13.85;6.20;;;;;;;;;;5052192;28;20098;-61
2021/10/19 13:22:41;;;;;;;10.40;4.65;;;;;;;;;;5052550;28;20056;-61
2021/10/19 13:25:09;;;;;;;10.80;5.20;;;;;;;;;;5052141;28;20049;-61
2021/10/19 13:27:36;;;;;;;11.82;5.47;;;;;;;;;;5052477;28;20049;-62
2021/10/19 13:30:03;;;;;;;11.55;5.40;;;;;;;;;;5052410;28;20056;-62
2021/10/19 13:32:30;;;;;;;11.95;5.28;;;;;;;;;;5052828;28;20059;-61
2021/10/19 13:34:58;;;;;;;11.00;5.30;;;;;;;;;;5052788;28;20092;-61
2021/10/19 13:37:25;;;;;;;12.35;6.28;;;;;;;;;;5052868;28;20049;-60
2021/10/19 13:39:53;;;;;;;12.23;5.82;;;;;;;;;;5052627;28;20049;-61
2021/10/19 13:42:20;;;;;;;14.65;6.78;;;;;;;;;;5052887;28;20509;-61
2021/10/19 13:44:47;;;;;;;10.90;5.32;;;;;;;;;;5052149;28;20482;-61
2021/10/19 13:47:14;;;;;;;10.13;5.57;;;;;;;;;;5052636;28;20115;-61
2021/10/19 13:49:41;;;;;;;10.98;5.57;;;;;;;;;;5052318;28;20063;-61
2021/10/19 13:52:09;;;;;;;10.32;5.57;;;;;;;;;;5052146;28;20051;-60
2021/10/19 13:54:39;;;;;;;11.52;5.63;;;;;;;;;;5052032;28;20469;-60
2021/10/19 13:57:08;;;;;;;12.18;6.22;;;;;;;;;;5051942;28;20114;-60
2021/10/19 13:59:35;;;;;;;10.68;5.60;;;;;;;;;;5051876;28;20057;-60
2021/10/19 14:02:02;;;;;;;11.13;6.00;;;;;;;;;;5055124;28;20049;-60
2021/10/19 14:04:30;;;;;;;11.70;6.13;;;;;;;;;;5055806;28;20102;-61
2021/10/19 14:06:57;;;;;;;16.25;7.13;;;;;;;;;;5056065;28;20068;-61
2021/10/19 14:09:27;;;;;;;17.48;8.68;;;;;;;;;;5056128;28;20059;-61
2021/10/19 14:11:57;;;;;;;22.85;11.02;;;;;;;;;;5056043;28;20060;-61
2021/10/19 14:14:24;;;;;;;15.15;7.55;;;;;;;;;;5056230;28;20476;-61
2021/10/19 14:16:51;;;;;;;14.43;6.57;;;;;;;;;;5056143;28;20490;-62
2021/10/19 14:19:18;;;;;;;12.75;6.53;;;;;;;;;;5055605;28;20049;-61
2021/10/19 14:21:46;;;;;;;15.32;7.65;;;;;;;;;;5055629;28;20049;-61
2021/10/19 14:24:13;;;;;;;16.95;7.90;;;;;;;;;;5055768;28;20394;-61
2021/10/19 14:26:42;;;;;;;11.93;5.93;;;;;;;;;;5055416;28;20409;-61